createdAt,value
2022-11-18T02:07:40.821Z,12.57
2022-11-18T02:10:10.806Z,14.30
2022-11-18T02:12:39.650Z,13.93
2022-11-18T02:15:12.063Z,18.63
2022-11-18T02:18:15.980Z,15.23
2022-11-18T02:20:47.961Z,13.55
2022-11-18T02:23:43.065Z,14.02
2022-11-18T02:26:14.724Z,13.52
2022-11-18T02:29:09.851Z,13.85
2022-11-18T02:31:58.529Z,16.83
2022-11-18T02:34:37.385Z,14.80
2022-11-18T02:37:14.986Z,14.00
2022-11-18T02:40:03.286Z,12.95
2022-11-18T02:42:35.983Z,14.00
2022-11-18T02:45:12.038Z,14.93
2022-11-18T02:47:44.147Z,17.58
2022-11-18T02:50:17.035Z,14.13
2022-11-18T02:52:47.329Z,15.37
2022-11-18T02:55:17.441Z,12.88
2022-11-18T02:57:46.915Z,14.70
2022-11-18T03:00:16.203Z,14.02
2022-11-18T03:02:48.271Z,15.15
2022-11-18T03:05:43.113Z,13.00
2022-11-18T03:08:16.294Z,14.35
2022-11-18T03:10:57.057Z,15.10
2022-11-18T03:13:31.131Z,13.73
2022-11-18T03:16:15.426Z,13.73
2022-11-18T03:18:59.827Z,13.40
2022-11-18T03:21:39.888Z,12.82
2022-11-18T03:24:15.677Z,12.02
2022-11-18T03:26:52.577Z,13.13
2022-11-18T03:29:33.685Z,14.52
2022-11-18T03:32:11.063Z,13.68
2022-11-18T03:34:45.991Z,15.57
2022-11-18T03:37:17.744Z,14.73
2022-11-18T03:39:54.702Z,13.55
2022-11-18T03:42:41.040Z,21.95
2022-11-18T03:45:28.037Z,22.02
2022-11-18T03:48:09.356Z,22.35
2022-11-18T03:50:43.711Z,22.52
2022-11-18T03:53:13.059Z,21.23
2022-11-18T03:55:45.276Z,19.63
2022-11-18T03:58:28.490Z,19.52
2022-11-18T04:01:31.045Z,19.60
2022-11-18T04:03:59.937Z,16.92
2022-11-18T04:06:49.643Z,16.52
2022-11-18T04:09:27.521Z,14.02
2022-11-18T04:12:05.414Z,15.63
2022-11-18T04:14:37.487Z,16.38
2022-11-18T04:17:21.997Z,15.70
2022-11-18T04:19:51.043Z,14.30
2022-11-18T04:22:20.366Z,15.07
2022-11-18T04:24:49.254Z,15.07
2022-11-18T04:27:17.794Z,15.55
2022-11-18T04:29:46.456Z,15.88
2022-11-18T04:32:15.219Z,15.10
2022-11-18T04:34:43.830Z,15.15
2022-11-18T04:37:12.591Z,14.98
2022-11-18T04:39:41.129Z,14.10
2022-11-18T04:42:12.341Z,14.13
2022-11-18T04:44:40.921Z,13.38
2022-11-18T04:47:09.650Z,13.82
2022-11-18T04:49:38.159Z,12.52
2022-11-18T04:52:07.556Z,14.85
2022-11-18T04:54:36.517Z,15.20
2022-11-18T04:57:05.374Z,14.38
2022-11-18T04:59:34.315Z,14.05
2022-11-18T05:02:03.193Z,12.38
2022-11-18T05:04:34.355Z,17.58
2022-11-18T05:07:05.478Z,13.70
2022-11-18T05:09:34.980Z,12.40
2022-11-18T05:12:22.217Z,11.95
2022-11-18T05:14:51.256Z,12.35
2022-11-18T05:17:20.240Z,10.23
2022-11-18T05:19:48.925Z,11.85
2022-11-18T05:22:17.959Z,11.43
2022-11-18T05:24:46.756Z,10.13
2022-11-18T05:27:16.438Z,10.00
2022-11-18T05:29:45.581Z,10.50
2022-11-18T05:32:14.336Z,9.40
2022-11-18T05:34:43.561Z,9.43
2022-11-18T05:37:12.435Z,8.70
2022-11-18T05:39:40.856Z,9.13
2022-11-18T05:42:29.547Z,8.95
2022-11-18T05:44:58.891Z,6.50
2022-11-18T05:47:28.277Z,11.13
2022-11-18T05:49:56.905Z,9.55
2022-11-18T05:52:25.598Z,8.50
2022-11-18T05:54:54.096Z,8.60
2022-11-18T05:57:22.831Z,9.02
2022-11-18T05:59:51.439Z,10.00
2022-11-18T06:02:25.227Z,8.63
2022-11-18T06:05:03.367Z,9.75
2022-11-18T06:07:39.837Z,15.07
2022-11-18T06:10:11.498Z,9.90
2022-11-18T06:12:43.596Z,9.77
2022-11-18T06:15:25.137Z,8.35
2022-11-18T06:18:04.839Z,8.52
2022-11-18T06:20:36.957Z,9.55
2022-11-18T06:23:05.737Z,13.13
2022-11-18T06:25:37.658Z,12.07
2022-11-18T06:28:06.799Z,11.48
2022-11-18T06:30:35.340Z,8.57
2022-11-18T06:33:04.186Z,8.70
2022-11-18T06:35:33.074Z,9.82
2022-11-18T06:38:01.802Z,7.97
2022-11-18T06:40:34.733Z,6.75
2022-11-18T06:43:30.272Z,7.70
2022-11-18T06:46:22.555Z,6.22
2022-11-18T06:48:54.736Z,6.90
2022-11-18T06:51:27.672Z,6.93
2022-11-18T06:53:56.611Z,7.63
2022-11-18T06:56:25.323Z,7.15
2022-11-18T06:58:58.952Z,7.88
2022-11-18T07:01:29.943Z,8.40
2022-11-18T07:04:02.826Z,6.65
2022-11-18T07:06:36.348Z,8.35
2022-11-18T07:09:08.004Z,13.07
2022-11-18T07:11:39.063Z,7.53
2022-11-18T07:14:09.240Z,7.78
2022-11-18T07:16:38.466Z,6.43
2022-11-18T07:19:14.768Z,8.77
2022-11-18T07:21:44.037Z,5.60
2022-11-18T07:24:15.611Z,5.28
2022-11-18T07:26:44.151Z,5.22
2022-11-18T07:29:12.942Z,7.45
2022-11-18T07:31:41.697Z,4.35
2022-11-18T07:34:10.577Z,4.63
2022-11-18T07:36:39.679Z,4.63
2022-11-18T07:39:08.703Z,4.57
2022-11-18T07:41:37.497Z,4.43
2022-11-18T07:44:07.337Z,6.07
2022-11-18T07:46:38.299Z,4.90
2022-11-18T07:49:12.190Z,4.28
2022-11-18T07:51:41.895Z,4.72
2022-11-18T07:54:13.184Z,5.50
2022-11-18T07:56:41.975Z,4.90
2022-11-18T07:59:10.658Z,4.57
2022-11-18T08:01:39.391Z,4.55
2022-11-18T08:04:13.118Z,8.85
2022-11-18T08:09:10.835Z,3.33
2022-11-18T08:11:42.099Z,6.05
2022-11-18T08:14:10.866Z,6.32
2022-11-18T08:16:39.783Z,3.17
2022-11-18T08:19:08.525Z,4.97
2022-11-18T08:21:37.226Z,4.13
2022-11-18T08:24:06.546Z,3.65
2022-11-18T08:26:35.411Z,4.35
2022-11-18T08:29:04.544Z,4.00
2022-11-18T08:31:33.709Z,3.55
2022-11-18T08:34:05.426Z,3.17
2022-11-18T08:36:37.217Z,3.42
2022-11-18T08:39:08.914Z,3.35
2022-11-18T08:41:43.140Z,4.40
2022-11-18T08:44:14.808Z,3.17
2022-11-18T08:46:46.317Z,4.70
2022-11-18T08:49:15.924Z,3.50
2022-11-18T08:51:44.791Z,2.95
2022-11-18T08:54:13.143Z,3.28
2022-11-18T08:56:41.850Z,3.97
2022-11-18T08:59:10.476Z,2.83
2022-11-18T09:01:39.363Z,3.47
2022-11-18T09:04:08.417Z,3.40
2022-11-18T09:06:39.345Z,3.25
2022-11-18T09:09:09.003Z,3.17
2022-11-18T09:11:40.220Z,7.28
2022-11-18T09:16:57.993Z,2.53
2022-11-18T09:22:15.457Z,4.45
2022-11-18T09:24:47.114Z,3.70
2022-11-18T09:27:17.549Z,21.10
2022-11-18T09:29:46.965Z,3.75
2022-11-18T09:32:15.637Z,20.63
2022-11-18T09:34:44.099Z,4.18
2022-11-18T09:37:13.365Z,4.68
2022-11-18T09:39:41.927Z,6.28
2022-11-18T09:42:44.478Z,4.53
2022-11-18T09:45:24.677Z,4.43
2022-11-18T09:47:59.605Z,4.20
2022-11-18T09:53:26.417Z,4.07
2022-11-18T09:55:56.359Z,4.25
2022-11-18T09:58:34.938Z,3.90
2022-11-18T10:01:10.007Z,4.10
2022-11-18T10:03:39.906Z,4.05
2022-11-18T10:06:23.163Z,3.72
2022-11-18T10:09:03.941Z,4.43
2022-11-18T10:12:05.898Z,4.35
2022-11-18T10:14:43.982Z,4.47
2022-11-18T10:17:44.341Z,5.15
2022-11-18T10:20:58.157Z,4.75
2022-11-18T10:23:51.240Z,4.95
2022-11-18T10:26:59.637Z,4.95
2022-11-18T10:29:28.658Z,4.18
2022-11-18T10:32:07.088Z,5.18
2022-11-18T10:34:46.881Z,4.45
2022-11-18T10:38:07.264Z,4.80
2022-11-18T10:40:29.400Z,9.55
2022-11-18T10:42:58.706Z,5.68
2022-11-18T10:45:31.597Z,9.57
2022-11-18T10:48:04.458Z,4.88
2022-11-18T10:50:34.699Z,4.60
2022-11-18T10:53:04.379Z,4.13
2022-11-18T10:55:33.637Z,4.57
2022-11-18T10:58:16.857Z,4.32
2022-11-18T11:00:50.099Z,5.00
2022-11-18T11:03:34.167Z,4.32
2022-11-18T11:06:22.119Z,4.22
2022-11-18T11:08:53.976Z,3.92
2022-11-18T11:11:29.308Z,10.40
2022-11-18T11:14:13.000Z,9.23
2022-11-18T11:17:11.967Z,17.38
2022-11-18T11:19:56.588Z,29.65
2022-11-18T11:22:25.955Z,6.45
2022-11-18T11:24:55.004Z,11.25
2022-11-18T11:28:17.445Z,7.15
2022-11-18T11:31:16.065Z,10.38
2022-11-18T11:33:57.085Z,20.58
2022-11-18T11:36:31.654Z,11.10
2022-11-18T11:39:30.168Z,5.63
2022-11-18T11:42:25.026Z,5.07
2022-11-18T11:45:15.465Z,5.45
2022-11-18T11:48:13.205Z,4.88
2022-11-18T11:51:03.454Z,4.28
2022-11-18T11:54:16.446Z,4.20
2022-11-18T11:57:05.464Z,8.38
2022-11-18T11:59:42.225Z,4.28
2022-11-18T12:02:26.123Z,9.43
2022-11-18T12:05:08.287Z,3.70
2022-11-18T12:08:05.689Z,4.32
2022-11-18T12:10:43.255Z,7.40
2022-11-18T12:13:37.939Z,5.93
2022-11-18T12:19:16.502Z,9.85
2022-11-18T12:21:47.957Z,4.57
2022-11-18T12:24:19.618Z,5.60
2022-11-18T12:26:51.100Z,4.75
2022-11-18T12:29:20.256Z,7.55
2022-11-18T12:31:58.507Z,7.95
2022-11-18T12:34:27.298Z,4.20
2022-11-18T12:36:57.172Z,4.95
2022-11-18T12:39:26.111Z,4.70
2022-11-18T12:42:17.944Z,3.90
2022-11-18T12:44:52.040Z,5.30
2022-11-18T12:50:16.954Z,4.00
2022-11-18T12:52:47.779Z,3.78
2022-11-18T12:55:21.965Z,4.40
2022-11-18T12:57:50.781Z,4.38
2022-11-18T13:00:25.557Z,5.72
2022-11-18T13:02:59.602Z,4.88
2022-11-18T13:05:35.660Z,5.28
2022-11-18T13:08:14.161Z,5.25
2022-11-18T13:11:29.315Z,9.52
2022-11-18T13:14:16.160Z,8.23
2022-11-18T13:17:02.876Z,6.78
2022-11-18T13:19:31.362Z,9.35
2022-11-18T13:22:20.362Z,7.00
2022-11-18T13:24:52.346Z,4.53
2022-11-18T13:27:33.143Z,6.55
2022-11-18T13:30:14.136Z,4.90
2022-11-18T13:32:48.386Z,4.65
2022-11-18T13:35:20.585Z,5.85
2022-11-18T13:37:54.141Z,5.05
2022-11-18T13:40:27.900Z,6.38
2022-11-18T13:42:57.084Z,5.57
2022-11-18T13:45:29.442Z,5.32
2022-11-18T13:48:09.083Z,6.18
2022-11-18T13:50:47.562Z,7.10
2022-11-18T13:53:25.179Z,5.13
2022-11-18T13:55:59.129Z,7.18
2022-11-18T14:01:30.198Z,12.50
2022-11-18T14:04:02.260Z,4.82
2022-11-18T14:06:36.320Z,6.43
2022-11-18T14:09:26.739Z,6.55
2022-11-18T14:12:24.307Z,8.45
2022-11-18T14:14:53.550Z,12.20
2022-11-18T14:17:27.769Z,5.57
2022-11-18T14:19:59.360Z,7.95
2022-11-18T14:22:31.720Z,5.57
2022-11-18T14:25:16.785Z,7.75
2022-11-18T14:27:53.947Z,6.65
2022-11-18T14:30:34.489Z,6.35
2022-11-18T14:33:25.171Z,5.18
2022-11-18T14:36:00.849Z,8.23
2022-11-18T14:38:58.019Z,6.10
2022-11-18T14:41:48.575Z,7.60
2022-11-18T14:44:21.968Z,5.95
2022-11-18T14:46:58.308Z,5.30
2022-11-18T14:49:29.108Z,5.63
2022-11-18T14:51:58.410Z,5.85
2022-11-18T14:54:28.432Z,5.18
2022-11-18T14:57:02.087Z,7.07
2022-11-18T14:59:31.321Z,4.90
2022-11-18T15:02:00.425Z,4.53
2022-11-18T15:04:29.692Z,5.03
2022-11-18T15:06:58.953Z,4.97
2022-11-18T15:09:30.700Z,5.03
2022-11-18T15:11:59.638Z,4.90
2022-11-18T15:14:28.849Z,5.25
2022-11-18T15:16:57.917Z,4.38
2022-11-18T15:19:27.022Z,4.78
2022-11-18T15:21:56.446Z,5.18
2022-11-18T15:24:25.164Z,4.47
2022-11-18T15:26:54.042Z,4.80
2022-11-18T15:29:25.436Z,3.80
2022-11-18T15:31:54.164Z,4.68
2022-11-18T15:34:22.965Z,4.68
2022-11-18T15:36:52.226Z,4.28
2022-11-18T15:39:21.079Z,4.20
2022-11-18T15:41:50.096Z,4.15
2022-11-18T15:44:19.126Z,3.90
2022-11-18T22:02:05.879Z,5.22
2022-11-18T22:04:52.996Z,5.63
2022-11-18T22:07:26.201Z,8.52
2022-11-18T22:09:55.904Z,5.78
2022-11-18T22:12:24.925Z,5.20
2022-11-18T22:14:53.475Z,6.25
2022-11-18T22:18:16.349Z,8.38
2022-11-18T22:20:44.655Z,13.63
2022-11-18T22:23:13.292Z,30.05
2022-11-18T22:25:41.765Z,5.57
2022-11-18T22:28:10.377Z,5.78
2022-11-18T22:30:38.967Z,5.13
2022-11-18T22:33:07.365Z,5.20
2022-11-18T22:35:35.945Z,6.63
2022-11-18T22:38:04.419Z,4.82
2022-11-18T22:40:33.093Z,5.25
2022-11-18T22:43:01.536Z,5.45
2022-11-18T22:45:30.500Z,5.25
2022-11-18T22:47:59.045Z,5.65
2022-11-18T22:50:27.589Z,5.55
2022-11-18T22:52:56.349Z,6.18
2022-11-18T22:55:24.959Z,5.32
2022-11-18T22:57:53.743Z,5.40
2022-11-18T23:00:22.611Z,5.90
2022-11-18T23:02:51.681Z,5.47
2022-11-18T23:05:20.365Z,5.50
2022-11-18T23:07:49.265Z,4.60
2022-11-18T23:10:18.244Z,7.13
2022-11-18T23:13:05.475Z,4.85
2022-11-18T23:15:34.257Z,4.18
2022-11-18T23:18:06.258Z,4.82
2022-11-18T23:20:38.922Z,10.40
2022-11-18T23:23:07.642Z,5.85
2022-11-18T23:25:36.132Z,4.45
2022-11-18T23:28:05.196Z,5.03
2022-11-18T23:30:34.451Z,5.25
2022-11-18T23:33:03.234Z,5.10
2022-11-18T23:35:31.952Z,5.32
2022-11-18T23:38:00.830Z,4.97
2022-11-18T23:40:32.003Z,5.05
2022-11-18T23:43:00.724Z,4.55
2022-11-18T23:45:30.104Z,5.68
2022-11-18T23:48:01.879Z,5.15
2022-11-18T23:50:38.058Z,5.68
2022-11-18T23:53:08.073Z,4.50
2022-11-18T23:55:36.908Z,5.25
2022-11-18T23:58:05.916Z,5.22
